This is the latest recevied weather packets stored in our database for station/object HK5VD-30. If no packets are shown the sender has not sent any weather packets the latest 1 day(s).
| Time | Temp. | Humidity | Pressure | Rain* | Wind** | Luminosity | Snow |
|---|---|---|---|---|---|---|---|
| 1778105143 | 28.89° C | 58% | 1009 hPa | 0 mm | - | - | - |
| 1778103342 | 29.44° C | 58% | 1009 hPa | 0 mm | - | - | - |
| 1778065520 | 20.56° C | 10% | - | 0 mm | - | - | - |
| 1778063719 | 20° C | 10% | - | 0 mm | - | - | - |
| 1778061918 | 22.22° C | 94% | 1013 hPa | 0 mm | - | - | - |
| 1778058316 | 21.11° C | 94% | 1013 hPa | 0 mm | - | - | - |
| 1778054714 | 22.78° C | 94% | 1013 hPa | 0 mm | - | - | - |
| 1778052913 | 22.22° C | 94% | 1013 hPa | 0 mm | - | - | - |
| 1778051112 | 21.67° C | 94% | 1013 hPa | 0 mm | - | - | - |
| 1778049311 | 21.11° C | 94% | 1013 hPa | 0 mm | - | - | - |
| 1778047510 | 20.56° C | 94% | 1013 hPa | 0 mm | - | - | - |
| 1778040305 | 23.33° C | 88% | 1014 hPa | 0 mm | - | - | - |
| 1778038504 | 22.78° C | 88% | 1014 hPa | 0 mm | - | - | - |
| 1778036703 | 22.22° C | 88% | 1014 hPa | 0 mm | - | - | - |
| 1778034902 | 21.67° C | 88% | 1014 hPa | 0 mm | - | - | - |
| 1778033101 | 23.89° C | 83% | 1013 hPa | 0 mm | - | - | - |
| 1778031299 | 23.33° C | 83% | 1013 hPa | 0 mm | - | - | - |
| 1778029498 | 22.78° C | 83% | 1012 hPa | 0 mm | - | - | - |
| 1778027697 | 25.56° C | 69% | 1012 hPa | 0 mm | - | - | - |
| 1778025896 | 26.67° C | 65% | 1011 hPa | 0 mm | - | - | - |
* Rain latest hour (hover to see other rain measurements)
** Current wind speed in m/s (hover to see current wind gust speed)